createdAt,value
2022-08-01T00:00:13.221Z,4.80
2022-08-01T00:01:13.055Z,2.24
2022-08-01T00:02:12.899Z,4.08
2022-08-01T00:03:12.968Z,4.72
2022-08-01T00:04:13.543Z,3.80
2022-08-01T00:05:13.537Z,3.44
2022-08-01T00:06:13.415Z,5.40
2022-08-01T00:07:15.392Z,3.72
2022-08-01T00:08:13.289Z,4.00
2022-08-01T00:09:23.646Z,3.08
2022-08-01T00:10:13.428Z,5.16
2022-08-01T00:11:13.460Z,4.12
2022-08-01T00:12:13.450Z,2.88
2022-08-01T00:13:13.672Z,5.92
2022-08-01T00:14:13.806Z,3.60
2022-08-01T00:15:13.778Z,2.88
2022-08-01T00:16:13.743Z,2.24
2022-08-01T00:17:13.759Z,1.64
2022-08-01T00:18:13.714Z,2.64
2022-08-01T00:19:13.608Z,2.80
2022-08-01T00:20:13.833Z,4.88
2022-08-01T00:21:14.753Z,6.64
2022-08-01T00:22:13.761Z,3.52
2022-08-01T00:23:13.714Z,3.60
2022-08-01T00:24:15.363Z,3.00
2022-08-01T00:25:13.358Z,3.36
2022-08-01T00:26:13.600Z,2.44
2022-08-01T00:27:14.047Z,2.52
2022-08-01T00:28:14.838Z,2.76
2022-08-01T00:30:01.976Z,4.60
2022-08-01T00:30:14.701Z,4.04
2022-08-01T00:31:13.050Z,4.20
2022-08-01T00:32:12.911Z,3.24
2022-08-01T00:33:12.992Z,2.96
2022-08-01T00:34:12.895Z,2.80
2022-08-01T00:35:12.713Z,5.92
2022-08-01T00:36:13.691Z,3.20
2022-08-01T00:37:16.074Z,4.64
2022-08-01T00:38:13.242Z,4.32
2022-08-01T00:39:13.312Z,2.20
2022-08-01T00:40:13.600Z,2.80
2022-08-01T00:41:13.705Z,2.24
2022-08-01T00:42:14.153Z,1.72
2022-08-01T00:43:13.403Z,4.20
2022-08-01T00:44:13.601Z,2.60
2022-08-01T00:45:13.440Z,6.36
2022-08-01T00:46:13.636Z,4.44
2022-08-01T00:47:13.952Z,4.84
2022-08-01T00:48:12.889Z,3.92
2022-08-01T00:49:13.356Z,4.36
2022-08-01T00:50:17.231Z,2.40
2022-08-01T00:51:13.395Z,3.08
2022-08-01T00:52:13.743Z,4.12
2022-08-01T00:53:18.966Z,4.36
2022-08-01T00:54:13.621Z,4.60
2022-08-01T00:55:14.978Z,3.28
2022-08-01T00:56:13.718Z,1.88
2022-08-01T00:57:15.052Z,2.92
2022-08-01T00:58:13.583Z,4.60
2022-08-01T00:59:14.150Z,2.80
2022-08-01T01:00:13.081Z,2.00
2022-08-01T01:01:13.405Z,3.84
2022-08-01T01:02:14.955Z,3.68
2022-08-01T01:03:13.433Z,4.70
2022-08-01T01:04:13.882Z,4.52
2022-08-01T01:05:14.575Z,1.84
2022-08-01T01:06:13.604Z,3.04
2022-08-01T01:07:13.781Z,3.92
2022-08-01T01:08:13.711Z,5.04
2022-08-01T01:09:13.569Z,3.36
2022-08-01T01:10:13.795Z,3.84
2022-08-01T01:11:14.097Z,5.16
2022-08-01T01:12:13.037Z,2.84
2022-08-01T01:13:13.076Z,4.20
2022-08-01T01:14:12.977Z,4.36
2022-08-01T01:15:13.048Z,3.88
2022-08-01T01:16:12.963Z,3.76
2022-08-01T01:17:13.025Z,6.60
2022-08-01T01:18:13.629Z,4.12
2022-08-01T01:19:13.600Z,4.68
2022-08-01T01:20:13.545Z,1.84
2022-08-01T01:21:13.829Z,5.64
2022-08-01T01:22:13.801Z,3.52
2022-08-01T01:23:13.828Z,3.92
2022-08-01T01:24:13.806Z,2.68
2022-08-01T01:25:13.883Z,2.88
2022-08-01T01:26:13.140Z,2.60
2022-08-01T01:27:13.469Z,4.20
2022-08-01T01:28:13.625Z,5.60
2022-08-01T01:29:14.099Z,5.16
2022-08-01T01:30:13.281Z,6.92
2022-08-01T01:31:13.159Z,5.16
2022-08-01T01:32:13.146Z,2.20
2022-08-01T01:33:12.991Z,4.04
2022-08-01T01:34:12.893Z,4.24
2022-08-01T01:35:13.159Z,2.52
2022-08-01T01:36:13.105Z,6.20
2022-08-01T01:37:13.139Z,3.20
2022-08-01T01:38:13.026Z,3.64
2022-08-01T01:39:12.981Z,3.12
2022-08-01T01:40:13.263Z,2.96
2022-08-01T01:41:13.369Z,4.04
2022-08-01T01:42:13.363Z,3.12
2022-08-01T01:43:13.540Z,4.24
2022-08-01T01:44:13.505Z,2.88
2022-08-01T01:45:13.527Z,3.40
2022-08-01T01:46:13.394Z,7.36
2022-08-01T01:47:13.277Z,4.52
2022-08-01T01:48:13.503Z,3.60
2022-08-01T01:49:13.666Z,3.56
2022-08-01T01:50:13.721Z,3.16
2022-08-01T01:51:14.027Z,2.88
2022-08-01T01:52:13.130Z,6.36
2022-08-01T01:53:15.067Z,5.16
2022-08-01T01:54:13.533Z,6.80
2022-08-01T01:55:13.841Z,4.48
2022-08-01T01:56:13.925Z,3.16
2022-08-01T01:57:13.042Z,2.24
2022-08-01T01:58:12.979Z,1.84
2022-08-01T01:59:13.520Z,2.76
2022-08-01T02:00:13.392Z,4.32
2022-08-01T02:01:14.622Z,6.84
2022-08-01T02:02:13.089Z,3.08
2022-08-01T02:03:13.591Z,2.76
2022-08-01T02:04:13.739Z,2.92
2022-08-01T02:05:13.895Z,5.92
2022-08-01T02:06:12.956Z,3.16
2022-08-01T02:07:12.831Z,4.72
2022-08-01T02:08:14.115Z,2.36
2022-08-01T02:09:13.179Z,3.76
2022-08-01T02:10:13.271Z,3.56
2022-08-01T02:11:13.258Z,3.64
2022-08-01T02:12:13.861Z,3.40
2022-08-01T02:13:13.454Z,3.80
2022-08-01T02:14:13.691Z,2.48
2022-08-01T02:15:13.724Z,1.60
2022-08-01T02:16:13.688Z,3.76
2022-08-01T02:17:13.690Z,4.52
2022-08-01T02:18:13.610Z,4.72
2022-08-01T02:19:13.567Z,2.76
2022-08-01T02:20:13.686Z,1.80
2022-08-01T02:21:13.996Z,2.88
2022-08-01T02:22:13.077Z,2.16
2022-08-01T02:23:12.946Z,1.72
2022-08-01T02:24:12.983Z,3.12
2022-08-01T02:25:13.293Z,1.52
2022-08-01T02:26:13.680Z,3.32
2022-08-01T02:27:13.580Z,2.84
2022-08-01T02:28:13.449Z,3.72
2022-08-01T02:29:13.880Z,3.32
2022-08-01T02:30:12.966Z,5.20
2022-08-01T02:31:12.874Z,4.64
2022-08-01T02:32:13.944Z,3.16
2022-08-01T02:33:15.551Z,3.92
2022-08-01T02:34:13.058Z,3.76
2022-08-01T02:35:14.351Z,4.32
2022-08-01T02:36:29.068Z,3.28
2022-08-01T02:37:13.340Z,3.84
2022-08-01T02:38:13.560Z,2.80
2022-08-01T02:39:14.047Z,3.24
2022-08-01T02:40:14.352Z,3.36
2022-08-01T02:41:13.751Z,2.24
2022-08-01T02:42:13.870Z,3.08
2022-08-01T02:43:13.999Z,4.44
2022-08-01T02:44:13.007Z,3.76
2022-08-01T02:45:12.943Z,2.64
2022-08-01T02:46:12.963Z,3.40
2022-08-01T02:47:13.940Z,4.44
2022-08-01T02:48:12.852Z,3.36
2022-08-01T02:49:13.945Z,5.24
2022-08-01T02:50:13.992Z,2.80
2022-08-01T02:51:12.982Z,0.72
2022-08-01T02:52:12.917Z,2.04
2022-08-01T02:53:12.937Z,0.52
2022-08-01T02:54:14.666Z,1.64
2022-08-01T02:55:13.927Z,2.44
2022-08-01T02:56:13.277Z,3.28
2022-08-01T02:57:13.939Z,2.64
2022-08-01T02:58:13.234Z,1.80
2022-08-01T02:59:13.763Z,1.84
2022-08-01T03:00:13.834Z,4.96
2022-08-01T03:01:14.387Z,2.80
2022-08-01T03:02:13.433Z,3.68
2022-08-01T03:03:13.841Z,2.16
2022-08-01T03:04:14.012Z,2.80
2022-08-01T03:05:12.994Z,1.36
2022-08-01T03:06:12.979Z,3.92
2022-08-01T03:07:13.317Z,3.68
2022-08-01T03:08:15.059Z,1.84
2022-08-01T03:09:13.503Z,2.96
2022-08-01T03:10:13.000Z,2.20
2022-08-01T03:11:13.322Z,1.68
2022-08-01T03:12:13.544Z,1.28
2022-08-01T03:13:13.424Z,3.48
2022-08-01T03:14:13.436Z,2.36
2022-08-01T03:15:13.511Z,2.76
2022-08-01T03:16:13.349Z,0.88
2022-08-01T03:17:13.199Z,1.96
2022-08-01T03:18:13.158Z,2.28
2022-08-01T03:19:13.107Z,0.68
2022-08-01T03:20:13.027Z,0.84
2022-08-01T03:21:12.979Z,0.20
2022-08-01T03:22:13.325Z,2.88
2022-08-01T03:23:13.595Z,1.44
2022-08-01T03:24:13.630Z,3.28
2022-08-01T03:25:13.801Z,1.92
2022-08-01T03:26:14.191Z,0.96
2022-08-01T03:27:13.341Z,1.76
2022-08-01T03:28:13.609Z,1.84
2022-08-01T03:29:13.733Z,3.36
2022-08-01T03:30:13.796Z,0.92
2022-08-01T03:31:14.133Z,2.08
2022-08-01T03:32:12.973Z,0.08
2022-08-01T03:33:14.603Z,3.00
2022-08-01T03:34:14.115Z,3.12
2022-08-01T03:35:13.065Z,3.04
2022-08-01T03:36:12.967Z,4.48
2022-08-01T03:37:12.827Z,3.84
2022-08-01T03:38:16.176Z,3.28
2022-08-01T03:39:13.651Z,1.80
2022-08-01T03:40:13.572Z,2.96
2022-08-01T03:41:13.550Z,5.08
2022-08-01T03:42:13.962Z,6.12
2022-08-01T03:43:12.854Z,4.64
2022-08-01T03:44:14.385Z,3.24
2022-08-01T03:45:13.632Z,3.36
2022-08-01T03:46:14.107Z,4.84
2022-08-01T03:47:13.016Z,2.40
2022-08-01T03:48:13.222Z,3.64
2022-08-01T03:49:13.065Z,0.96
2022-08-01T03:50:13.228Z,2.56
2022-08-01T03:51:13.028Z,0.20
2022-08-01T03:52:13.384Z,2.80
2022-08-01T03:53:13.417Z,3.20
2022-08-01T03:54:13.310Z,3.60
2022-08-01T03:55:14.407Z,2.56
2022-08-01T03:56:13.512Z,0.28
2022-08-01T03:57:23.251Z,2.88
2022-08-01T03:58:13.744Z,2.00
2022-08-01T03:59:13.639Z,2.24
2022-08-01T04:00:13.664Z,3.16
2022-08-01T04:01:15.685Z,5.68
2022-08-01T04:02:13.032Z,6.40
2022-08-01T04:03:12.904Z,3.64
2022-08-01T04:04:12.809Z,3.20
2022-08-01T04:05:13.677Z,4.52
2022-08-01T04:06:13.831Z,3.40
2022-08-01T04:07:14.262Z,2.60
2022-08-01T04:08:13.275Z,2.76
2022-08-01T04:09:13.952Z,1.56
2022-08-01T04:10:18.449Z,2.88
2022-08-01T04:11:13.329Z,1.28
2022-08-01T04:12:13.318Z,0.96
2022-08-01T04:13:13.995Z,3.68
2022-08-01T04:14:18.023Z,1.92
2022-08-01T04:15:13.047Z,4.68
2022-08-01T04:16:13.087Z,2.00
2022-08-01T04:17:13.100Z,1.00
2022-08-01T04:18:12.953Z,3.48
2022-08-01T04:19:12.875Z,2.40
2022-08-01T04:20:13.780Z,0.60
2022-08-01T04:21:18.841Z,0.16
2022-08-01T04:22:13.883Z,1.88
2022-08-01T04:23:12.747Z,1.12
2022-08-01T04:24:13.712Z,0.00
2022-08-01T04:25:13.726Z,0.36
2022-08-01T04:26:13.594Z,0.08
2022-08-01T04:27:13.909Z,0.00
2022-08-01T04:28:13.112Z,1.00
2022-08-01T04:29:13.145Z,0.12
2022-08-01T04:30:13.215Z,0.00
2022-08-01T04:31:13.208Z,0.48
2022-08-01T04:32:13.175Z,0.00
2022-08-01T04:33:13.003Z,0.00
2022-08-01T04:34:13.070Z,0.00
2022-08-01T04:35:23.564Z,0.40
2022-08-01T04:36:13.529Z,0.00
2022-08-01T04:37:13.839Z,0.00
2022-08-01T04:38:13.842Z,0.20
2022-08-01T04:39:13.761Z,0.32
2022-08-01T04:40:14.134Z,1.96
2022-08-01T04:41:13.026Z,0.32
2022-08-01T04:42:13.259Z,0.00
2022-08-01T04:43:14.919Z,0.00
2022-08-01T04:44:13.131Z,0.56
2022-08-01T04:45:13.054Z,1.24
2022-08-01T04:46:13.023Z,1.20
2022-08-01T04:47:12.932Z,0.00
2022-08-01T04:48:12.846Z,0.00
2022-08-01T04:49:13.060Z,0.00
2022-08-01T04:50:13.057Z,2.20
2022-08-01T04:51:12.912Z,2.00
2022-08-01T04:52:16.876Z,2.68
2022-08-01T04:53:12.792Z,1.60
2022-08-01T04:54:14.117Z,0.00
2022-08-01T04:55:13.031Z,0.00
2022-08-01T04:56:13.461Z,0.24
2022-08-01T04:57:13.319Z,2.44
2022-08-01T04:58:17.691Z,3.20
2022-08-01T04:59:15.588Z,5.68
2022-08-01T05:00:13.079Z,6.36
2022-08-01T05:01:13.070Z,4.64
2022-08-01T05:02:13.002Z,4.48
2022-08-01T05:03:13.035Z,3.20
2022-08-01T05:04:18.297Z,3.64
2022-08-01T05:05:13.636Z,1.60
2022-08-01T05:06:12.938Z,3.08
2022-08-01T05:07:13.116Z,3.64
2022-08-01T05:08:18.842Z,5.16
2022-08-01T05:09:14.214Z,5.00
2022-08-01T05:10:13.149Z,3.44
2022-08-01T05:11:13.172Z,3.52
2022-08-01T05:12:13.368Z,3.64
2022-08-01T05:13:13.776Z,4.08
2022-08-01T05:14:13.785Z,6.04
2022-08-01T05:15:15.638Z,5.32
2022-08-01T05:16:14.085Z,3.24
2022-08-01T05:17:13.233Z,3.98
2022-08-01T05:18:18.768Z,3.68
2022-08-01T05:19:18.467Z,4.16
2022-08-01T05:20:18.713Z,2.20
2022-08-01T05:21:18.844Z,3.20
2022-08-01T05:22:14.218Z,1.96
2022-08-01T05:23:20.559Z,3.60
2022-08-01T05:24:13.812Z,3.60
2022-08-01T05:25:20.371Z,1.88
2022-08-01T05:26:14.630Z,2.48
2022-08-01T05:27:13.729Z,2.52
2022-08-01T05:28:13.304Z,3.64
2022-08-01T05:29:13.087Z,4.72
2022-08-01T05:30:12.937Z,2.12
2022-08-01T05:31:12.942Z,4.20
2022-08-01T05:32:12.980Z,1.12
2022-08-01T05:33:12.860Z,1.92
2022-08-01T05:34:15.392Z,5.04
2022-08-01T05:35:13.274Z,2.44
2022-08-01T05:36:13.230Z,3.28
2022-08-01T05:37:13.180Z,3.80
2022-08-01T05:38:15.216Z,4.12
2022-08-01T05:39:13.212Z,4.40
2022-08-01T05:40:13.195Z,1.48
2022-08-01T05:41:13.432Z,4.08
2022-08-01T05:42:18.428Z,4.48
2022-08-01T05:43:13.344Z,3.08
2022-08-01T05:44:14.445Z,2.12
2022-08-01T05:45:14.481Z,2.52
2022-08-01T05:46:13.768Z,2.28
2022-08-01T05:47:13.695Z,2.68
2022-08-01T05:48:13.639Z,2.92
2022-08-01T05:49:14.851Z,2.76
2022-08-01T05:50:13.759Z,3.16
2022-08-01T05:51:13.925Z,4.72
2022-08-01T05:52:14.100Z,4.04
2022-08-01T05:53:12.972Z,4.24
2022-08-01T05:54:18.249Z,5.12
2022-08-01T05:55:13.218Z,3.16
2022-08-01T05:56:20.094Z,3.84
2022-08-01T05:57:13.107Z,4.16
2022-08-01T05:58:13.317Z,4.04
2022-08-01T05:59:13.570Z,2.20
2022-08-01T06:00:13.540Z,4.72
2022-08-01T06:01:13.985Z,2.68
2022-08-01T06:02:13.054Z,2.28
2022-08-01T06:03:14.266Z,6.64
2022-08-01T06:04:13.218Z,5.32
2022-08-01T06:05:13.781Z,4.40
2022-08-01T06:06:12.819Z,4.80
2022-08-01T06:07:19.039Z,3.48
2022-08-01T06:08:13.163Z,4.24
2022-08-01T06:09:13.281Z,3.08
2022-08-01T06:10:14.219Z,6.52
2022-08-01T06:11:13.365Z,4.76
2022-08-01T06:12:14.519Z,3.88
2022-08-01T06:13:13.456Z,3.24
2022-08-01T06:14:19.511Z,4.96
2022-08-01T06:15:13.460Z,3.92
2022-08-01T06:16:14.546Z,1.68
2022-08-01T06:17:18.465Z,5.20
2022-08-01T06:18:19.009Z,2.08
2022-08-01T06:19:13.356Z,2.92
2022-08-01T06:20:13.451Z,3.64
2022-08-01T06:21:13.768Z,4.00
2022-08-01T06:22:14.050Z,4.04
2022-08-01T06:23:28.516Z,3.28
2022-08-01T06:24:13.626Z,3.64
2022-08-01T06:25:14.063Z,2.16
2022-08-01T06:26:13.157Z,5.52
2022-08-01T06:27:22.370Z,5.96
2022-08-01T06:28:17.487Z,3.80
2022-08-01T06:29:13.761Z,4.20
2022-08-01T06:30:14.037Z,4.64
2022-08-01T06:31:13.390Z,6.20
2022-08-01T06:32:24.216Z,5.20
2022-08-01T06:33:13.684Z,3.60
2022-08-01T06:34:13.697Z,4.24
2022-08-01T06:35:13.761Z,4.32
2022-08-01T06:36:13.835Z,4.96
2022-08-01T06:37:13.945Z,3.32
2022-08-01T06:38:12.860Z,3.88
2022-08-01T06:39:13.794Z,2.16
2022-08-01T06:40:16.876Z,5.52
2022-08-01T06:41:18.592Z,4.88
2022-08-01T06:42:13.642Z,4.76
2022-08-01T06:43:13.614Z,3.64
2022-08-01T06:44:13.551Z,6.24
2022-08-01T06:45:13.458Z,4.68
2022-08-01T06:46:13.780Z,2.96
2022-08-01T06:47:13.848Z,0.80
2022-08-01T06:48:13.986Z,4.76
2022-08-01T06:49:13.213Z,4.48
2022-08-01T06:50:13.345Z,2.32
2022-08-01T06:51:13.275Z,2.84
2022-08-01T06:52:18.312Z,5.96
2022-08-01T06:53:13.236Z,0.68
2022-08-01T06:54:13.140Z,3.52
2022-08-01T06:55:13.239Z,2.76
2022-08-01T06:56:13.843Z,3.04
2022-08-01T06:57:14.116Z,6.08
2022-08-01T06:58:13.299Z,4.16
2022-08-01T06:59:13.401Z,3.32
2022-08-01T07:00:13.625Z,5.48
2022-08-01T07:01:19.199Z,3.36
2022-08-01T07:02:13.593Z,0.84
2022-08-01T07:03:13.995Z,3.32
2022-08-01T07:04:13.268Z,4.28
2022-08-01T07:05:13.269Z,2.72
2022-08-01T07:06:13.187Z,0.96
2022-08-01T07:07:19.872Z,1.68
2022-08-01T07:08:12.866Z,5.24
2022-08-01T07:09:14.640Z,3.84
2022-08-01T07:10:13.997Z,2.96
2022-08-01T07:11:12.910Z,7.44
2022-08-01T07:12:12.888Z,6.92
2022-08-01T07:13:13.818Z,7.28
2022-08-01T07:14:13.784Z,8.32
2022-08-01T07:15:13.956Z,6.60
2022-08-01T07:16:13.160Z,6.44
2022-08-01T07:17:13.491Z,9.24
2022-08-01T07:18:14.555Z,8.68
2022-08-01T07:19:13.461Z,2.80
2022-08-01T07:20:13.967Z,1.48
2022-08-01T07:21:38.341Z,4.88
2022-08-01T07:22:13.701Z,7.80
2022-08-01T07:23:13.155Z,6.88
2022-08-01T07:24:14.436Z,3.92
2022-08-01T07:25:13.102Z,6.76
2022-08-01T07:26:14.565Z,9.56
2022-08-01T07:27:25.341Z,6.68
2022-08-01T07:28:13.227Z,7.40
2022-08-01T07:29:13.191Z,6.64
2022-08-01T07:30:13.141Z,5.40
2022-08-01T07:31:13.004Z,6.48
2022-08-01T07:32:17.963Z,8.64
2022-08-01T07:33:13.161Z,10.08
2022-08-01T07:34:14.415Z,6.04
2022-08-01T07:35:18.535Z,0.56
2022-08-01T07:36:13.468Z,8.32
2022-08-01T07:37:13.658Z,8.92
2022-08-01T07:38:13.541Z,8.16
2022-08-01T07:39:13.834Z,6.88
2022-08-01T07:40:13.823Z,12.48
2022-08-01T07:41:13.850Z,15.44
2022-08-01T07:42:14.310Z,7.44
2022-08-01T07:43:13.391Z,3.76
2022-08-01T07:44:13.499Z,9.64
2022-08-01T07:45:13.917Z,4.48
2022-08-01T07:46:12.858Z,12.16
2022-08-01T07:47:13.894Z,12.76
2022-08-01T07:48:13.120Z,12.72
2022-08-01T07:49:20.192Z,16.48
2022-08-01T07:50:13.160Z,10.08
2022-08-01T07:51:13.150Z,7.32
2022-08-01T07:52:13.257Z,15.48
2022-08-01T07:53:14.057Z,11.48
2022-08-01T07:54:13.019Z,11.24
2022-08-01T07:55:16.178Z,6.56
2022-08-01T07:56:12.824Z,3.20
2022-08-01T07:57:13.796Z,11.96
2022-08-01T07:58:13.787Z,5.76
2022-08-01T07:59:24.045Z,4.52
2022-08-01T08:00:13.437Z,5.66
2022-08-01T08:01:13.554Z,6.28
2022-08-01T08:02:13.766Z,6.76
2022-08-01T08:03:13.738Z,6.20
2022-08-01T08:04:13.666Z,7.12
2022-08-01T08:05:13.736Z,14.00
2022-08-01T08:06:14.104Z,6.92
2022-08-01T08:07:13.164Z,8.92
2022-08-01T08:08:13.221Z,10.28
2022-08-01T08:09:13.622Z,17.40
2022-08-01T08:10:13.753Z,15.28
2022-08-01T08:11:14.063Z,12.32
2022-08-01T08:12:13.119Z,16.72
2022-08-01T08:13:13.623Z,12.72
2022-08-01T08:14:13.876Z,21.60
2022-08-01T08:15:14.756Z,15.04
2022-08-01T08:16:13.747Z,17.00
2022-08-01T08:17:13.694Z,13.84
2022-08-01T08:18:13.637Z,11.60
2022-08-01T08:19:13.085Z,14.04
2022-08-01T08:20:13.205Z,16.92
2022-08-01T08:21:13.621Z,11.96
2022-08-01T08:22:13.793Z,12.28
2022-08-01T08:23:13.890Z,10.20
2022-08-01T08:24:13.809Z,14.48
2022-08-01T08:25:13.759Z,7.44
2022-08-01T08:26:13.773Z,17.04
2022-08-01T08:27:13.782Z,11.16
2022-08-01T08:28:15.700Z,12.64
2022-08-01T08:29:13.802Z,14.36
2022-08-01T08:30:13.732Z,18.76
2022-08-01T08:31:25.144Z,17.92
2022-08-01T08:32:13.195Z,22.08
2022-08-01T08:33:13.731Z,12.72
2022-08-01T08:34:13.144Z,13.96
2022-08-01T08:35:17.228Z,11.36
2022-08-01T08:36:13.098Z,8.68
2022-08-01T08:37:13.403Z,9.40
2022-08-01T08:38:15.172Z,10.80
2022-08-01T08:39:13.498Z,3.80
2022-08-01T08:40:13.836Z,2.88
2022-08-01T08:41:17.952Z,9.52
2022-08-01T08:42:14.123Z,13.92
2022-08-01T08:43:13.171Z,8.52
2022-08-01T08:44:13.287Z,6.12
2022-08-01T08:45:13.181Z,9.12
2022-08-01T08:46:13.305Z,5.48
2022-08-01T08:47:18.734Z,6.08
2022-08-01T08:48:13.269Z,8.44
2022-08-01T08:49:13.304Z,8.08
2022-08-01T08:50:13.567Z,6.92
2022-08-01T08:51:13.845Z,4.28
2022-08-01T08:52:13.951Z,4.04
2022-08-01T08:53:18.553Z,3.48
2022-08-01T08:54:13.307Z,7.84
2022-08-01T08:55:13.529Z,6.00
2022-08-01T08:56:13.520Z,15.28
2022-08-01T08:57:13.846Z,15.48
2022-08-01T08:58:14.206Z,8.88
2022-08-01T08:59:14.538Z,14.92
2022-08-01T09:00:13.953Z,13.00
2022-08-01T09:01:12.977Z,13.60
2022-08-01T09:02:13.565Z,8.04
2022-08-01T09:03:12.922Z,8.72
2022-08-01T09:04:19.957Z,12.12
2022-08-01T09:05:18.975Z,13.40
2022-08-01T09:06:13.727Z,16.04
2022-08-01T09:07:13.710Z,6.44
2022-08-01T09:08:13.760Z,7.76
2022-08-01T09:09:13.949Z,7.80
2022-08-01T09:10:12.844Z,10.48
2022-08-01T09:11:22.529Z,18.20
2022-08-01T09:12:13.463Z,22.08
2022-08-01T09:13:13.581Z,14.16
2022-08-01T09:14:14.722Z,16.56
2022-08-01T09:15:13.301Z,23.12
2022-08-01T09:16:13.274Z,15.24
2022-08-01T09:17:13.279Z,19.88
2022-08-01T09:18:13.550Z,11.64
2022-08-01T09:19:16.420Z,8.16
2022-08-01T09:20:13.917Z,12.60
2022-08-01T09:21:12.940Z,19.64
2022-08-01T09:22:12.909Z,15.12
2022-08-01T09:23:12.915Z,16.60
2022-08-01T09:24:12.886Z,10.40
2022-08-01T09:25:12.989Z,8.68
2022-08-01T09:26:12.904Z,17.40
2022-08-01T09:27:12.876Z,10.04
2022-08-01T09:28:14.039Z,6.32
2022-08-01T09:29:14.408Z,3.24
2022-08-01T09:30:12.946Z,6.68
2022-08-01T09:31:13.453Z,5.04
2022-08-01T09:32:14.097Z,4.08
2022-08-01T09:33:21.675Z,5.36
2022-08-01T09:34:13.208Z,6.80
2022-08-01T09:35:13.211Z,9.72
2022-08-01T09:36:13.409Z,8.48
2022-08-01T09:37:13.144Z,10.32
2022-08-01T09:38:13.264Z,10.20
2022-08-01T09:39:13.230Z,10.20
2022-08-01T09:40:13.253Z,12.92
2022-08-01T09:41:14.225Z,13.12
2022-08-01T09:42:13.593Z,6.00
2022-08-01T09:43:15.013Z,10.76
2022-08-01T09:44:13.362Z,22.44
2022-08-01T09:45:23.222Z,12.72
2022-08-01T09:46:13.504Z,11.48
2022-08-01T09:47:15.366Z,11.84
2022-08-01T09:48:14.135Z,9.80
2022-08-01T09:49:12.911Z,10.64
2022-08-01T09:50:13.231Z,13.88
2022-08-01T09:51:13.578Z,9.80
2022-08-01T09:52:13.632Z,11.88
2022-08-01T09:53:24.479Z,16.00
2022-08-01T09:54:14.074Z,10.56
2022-08-01T09:55:13.918Z,7.08
2022-08-01T09:56:12.972Z,14.96
2022-08-01T09:57:13.050Z,17.16
2022-08-01T09:58:13.668Z,14.28
2022-08-01T09:59:13.779Z,9.40
2022-08-01T10:00:24.215Z,5.12
2022-08-01T10:01:13.399Z,7.28
2022-08-01T10:02:15.154Z,11.08
2022-08-01T10:03:13.351Z,10.20
2022-08-01T10:04:13.631Z,6.56
2022-08-01T10:05:21.178Z,9.64
2022-08-01T10:06:13.674Z,5.40
2022-08-01T10:07:13.996Z,5.76
2022-08-01T10:08:13.075Z,8.64
2022-08-01T10:09:13.351Z,15.04
2022-08-01T10:10:14.401Z,12.00
2022-08-01T10:11:14.053Z,5.20
2022-08-01T10:12:15.417Z,3.04
2022-08-01T10:13:13.646Z,2.84
2022-08-01T10:14:13.255Z,1.36
2022-08-01T10:15:12.852Z,3.60
2022-08-01T10:16:14.263Z,4.12
2022-08-01T10:17:18.304Z,6.92
2022-08-01T10:18:16.393Z,7.36
2022-08-01T10:19:15.519Z,7.64
2022-08-01T10:20:29.798Z,8.40
2022-08-01T10:21:13.029Z,8.72
2022-08-01T10:22:13.564Z,2.96
2022-08-01T10:23:13.256Z,10.84
2022-08-01T10:24:13.760Z,12.36
2022-08-01T10:25:13.785Z,10.16
2022-08-01T10:26:13.662Z,9.40
2022-08-01T10:27:14.106Z,13.72
2022-08-01T10:28:13.935Z,8.28
2022-08-01T10:29:23.952Z,13.36
2022-08-01T10:30:19.226Z,9.08
2022-08-01T10:31:14.656Z,6.80
2022-08-01T10:32:15.552Z,18.92
2022-08-01T10:33:19.915Z,7.04
2022-08-01T10:34:13.177Z,9.96
2022-08-01T10:35:15.277Z,12.68
2022-08-01T10:36:13.854Z,15.04
2022-08-01T10:37:14.293Z,10.64
2022-08-01T10:38:14.366Z,16.04
2022-08-01T10:39:13.350Z,17.32
2022-08-01T10:40:30.147Z,19.08
2022-08-01T10:41:15.587Z,14.44
2022-08-01T10:42:15.654Z,19.92
2022-08-01T10:43:13.322Z,20.24
2022-08-01T10:44:13.911Z,20.60
2022-08-01T10:45:13.658Z,22.48
2022-08-01T10:46:13.836Z,14.72
2022-08-01T10:47:16.068Z,15.44
2022-08-01T10:48:13.207Z,6.68
2022-08-01T10:49:13.761Z,13.92
2022-08-01T10:50:15.182Z,11.16
2022-08-01T10:51:17.944Z,6.56
2022-08-01T10:52:12.824Z,6.36
2022-08-01T10:53:16.680Z,6.52
2022-08-01T10:54:13.960Z,2.50
2022-08-01T10:55:13.363Z,12.38
2022-08-01T10:56:16.623Z,10.44
2022-08-01T10:57:12.771Z,6.48
2022-08-01T10:58:17.991Z,10.32
2022-08-01T10:59:13.456Z,6.08
2022-08-01T11:00:13.440Z,18.00
2022-08-01T11:01:13.283Z,22.64
2022-08-01T11:02:13.356Z,17.60
2022-08-01T11:03:13.362Z,13.40
2022-08-01T11:04:16.385Z,12.48
2022-08-01T11:05:19.882Z,7.25
2022-08-01T11:06:14.754Z,6.52
2022-08-01T11:07:14.284Z,9.92
2022-08-01T11:08:13.536Z,10.08
2022-08-01T11:09:16.588Z,15.60
2022-08-01T11:10:14.939Z,8.44
2022-08-01T11:11:13.854Z,13.04
2022-08-01T11:12:23.003Z,15.32
2022-08-01T11:13:15.023Z,2.08
2022-08-01T11:14:13.144Z,9.32
2022-08-01T11:15:13.305Z,8.00
2022-08-01T11:16:16.379Z,13.00
2022-08-01T11:17:13.537Z,12.36
2022-08-01T11:18:13.593Z,13.60
2022-08-01T11:19:13.222Z,17.08
2022-08-01T11:20:18.222Z,15.09
2022-08-01T11:21:56.816Z,10.24
2022-08-01T11:22:13.731Z,10.80
2022-08-01T11:23:13.898Z,15.84
2022-08-01T11:24:13.053Z,7.64
2022-08-01T11:25:13.600Z,17.76
2022-08-01T11:26:17.470Z,18.76
2022-08-01T11:27:15.202Z,13.56
2022-08-01T11:28:15.195Z,12.00
2022-08-01T11:29:20.619Z,7.74
2022-08-01T11:30:15.349Z,6.30
2022-08-01T11:31:14.497Z,5.48
2022-08-01T11:32:14.893Z,2.59
2022-08-01T11:33:13.193Z,3.60
2022-08-01T11:34:15.595Z,4.70
2022-08-01T11:35:13.831Z,3.84
2022-08-01T11:36:14.395Z,5.56
2022-08-01T11:37:15.016Z,4.64
2022-08-01T11:38:13.352Z,3.32
2022-08-01T11:39:14.239Z,5.04
2022-08-01T11:40:14.901Z,3.96
2022-08-01T11:41:13.811Z,4.52
2022-08-01T11:42:16.240Z,5.48
2022-08-01T11:43:13.532Z,6.44
2022-08-01T11:44:13.532Z,7.92
2022-08-01T11:45:18.111Z,10.40
2022-08-01T11:46:13.351Z,14.08
2022-08-01T11:47:13.939Z,13.84
2022-08-01T11:48:13.100Z,9.96
2022-08-01T11:49:13.680Z,16.12
2022-08-01T11:50:13.725Z,12.40
2022-08-01T11:51:19.598Z,13.16
2022-08-01T11:52:13.621Z,8.16
2022-08-01T11:53:15.244Z,8.96
2022-08-01T11:54:13.803Z,4.92
2022-08-01T11:55:16.602Z,4.76
2022-08-01T11:56:14.611Z,4.40
2022-08-01T11:57:13.661Z,2.00
2022-08-01T11:58:22.457Z,3.24
2022-08-01T11:59:15.272Z,12.76
2022-08-01T12:00:16.565Z,8.08
2022-08-01T12:01:13.607Z,8.64
2022-08-01T12:02:13.582Z,5.92
2022-08-01T12:03:19.144Z,9.84
2022-08-01T12:04:13.517Z,8.28
2022-08-01T12:05:14.058Z,9.28
2022-08-01T12:06:13.570Z,5.64
2022-08-01T12:07:13.438Z,4.36
2022-08-01T12:08:13.673Z,6.00
2022-08-01T12:09:14.093Z,9.60
2022-08-01T12:10:13.267Z,7.92
2022-08-01T12:11:13.370Z,4.20
2022-08-01T12:12:12.961Z,4.40
2022-08-01T12:13:15.308Z,7.84
2022-08-01T12:14:13.609Z,9.64
2022-08-01T12:15:13.616Z,8.80
2022-08-01T12:16:18.582Z,14.68
2022-08-01T12:17:14.018Z,6.32
2022-08-01T12:18:13.069Z,5.60
2022-08-01T12:19:15.016Z,4.64
2022-08-01T12:20:15.101Z,8.00
2022-08-01T12:21:13.246Z,5.56
2022-08-01T12:22:13.291Z,4.20
2022-08-01T12:23:13.301Z,6.00
2022-08-01T12:24:13.404Z,8.28
2022-08-01T12:25:13.466Z,14.16
2022-08-01T12:26:31.996Z,7.16
2022-08-01T12:27:14.018Z,11.44
2022-08-01T12:28:13.053Z,10.76
2022-08-01T12:29:14.744Z,7.44
2022-08-01T12:30:17.210Z,5.88
2022-08-01T12:31:13.132Z,13.16
2022-08-01T12:32:14.342Z,8.80
2022-08-01T12:33:13.093Z,7.36
2022-08-01T12:34:16.174Z,11.52
2022-08-01T12:35:17.903Z,8.08
2022-08-01T12:36:14.756Z,7.64
2022-08-01T12:37:14.506Z,3.76
2022-08-01T12:38:13.513Z,3.56
2022-08-01T12:39:19.976Z,5.48
2022-08-01T12:40:14.623Z,7.96
2022-08-01T12:41:15.826Z,7.08
2022-08-01T12:42:15.223Z,6.60
2022-08-01T12:43:15.931Z,5.68
2022-08-01T12:44:17.052Z,8.48
2022-08-01T12:45:15.441Z,8.04
2022-08-01T12:46:15.014Z,11.40
2022-08-01T12:47:17.672Z,4.92
2022-08-01T12:48:14.035Z,5.96
2022-08-01T12:49:15.760Z,4.64
2022-08-01T12:50:13.978Z,10.84
2022-08-01T12:51:14.999Z,11.60
2022-08-01T12:52:13.495Z,6.76
2022-08-01T12:53:18.918Z,7.08
2022-08-01T12:54:12.950Z,13.24
2022-08-01T12:55:13.820Z,7.52
2022-08-01T12:56:15.483Z,8.76
2022-08-01T12:57:13.892Z,9.36
2022-08-01T12:58:16.109Z,9.44
2022-08-01T12:59:13.426Z,8.64
2022-08-01T13:00:13.413Z,7.88
2022-08-01T13:01:18.872Z,10.32
2022-08-01T13:02:12.867Z,8.52
2022-08-01T13:03:16.060Z,3.96
2022-08-01T13:04:14.486Z,22.84
2022-08-01T13:05:14.898Z,36.52
2022-08-01T13:06:14.618Z,41.32
2022-08-01T13:07:15.907Z,29.68
2022-08-01T13:08:13.314Z,11.92
2022-08-01T13:09:14.562Z,13.48
2022-08-01T13:10:16.085Z,12.96
2022-08-01T13:11:13.151Z,12.00
2022-08-01T13:12:14.649Z,15.80
2022-08-01T13:13:28.683Z,29.60